sensor_id;sensor_type;location;lat;lon;timestamp;P1;durP1;ratioP1;P2;durP2;ratioP2
46941;SDS011;32676;52.630;4.896;2023-01-13T00:02:19;52.35;;;12.05;;
46941;SDS011;32676;52.630;4.896;2023-01-13T00:04:47;37.25;;;8.73;;
46941;SDS011;32676;52.630;4.896;2023-01-13T00:07:14;60.60;;;9.23;;
46941;SDS011;32676;52.630;4.896;2023-01-13T00:09:40;49.97;;;10.80;;
46941;SDS011;32676;52.630;4.896;2023-01-13T00:12:06;50.65;;;11.13;;
46941;SDS011;32676;52.630;4.896;2023-01-13T00:14:33;55.58;;;7.85;;
46941;SDS011;32676;52.630;4.896;2023-01-13T00:17:00;59.95;;;12.68;;
46941;SDS011;32676;52.630;4.896;2023-01-13T00:19:26;49.72;;;7.40;;
46941;SDS011;32676;52.630;4.896;2023-01-13T00:21:54;48.00;;;8.95;;
46941;SDS011;32676;52.630;4.896;2023-01-13T00:24:21;65.15;;;10.07;;
46941;SDS011;32676;52.630;4.896;2023-01-13T00:26:47;46.10;;;10.75;;
46941;SDS011;32676;52.630;4.896;2023-01-13T00:29:14;46.58;;;7.78;;
46941;SDS011;32676;52.630;4.896;2023-01-13T00:31:40;58.13;;;10.75;;
46941;SDS011;32676;52.630;4.896;2023-01-13T00:34:07;48.22;;;9.15;;
46941;SDS011;32676;52.630;4.896;2023-01-13T00:36:33;48.95;;;8.32;;
46941;SDS011;32676;52.630;4.896;2023-01-13T00:39:01;51.28;;;7.05;;
46941;SDS011;32676;52.630;4.896;2023-01-13T00:41:28;50.85;;;11.07;;
46941;SDS011;32676;52.630;4.896;2023-01-13T00:44:15;38.65;;;8.27;;
46941;SDS011;32676;52.630;4.896;2023-01-13T00:46:40;60.17;;;9.90;;
46941;SDS011;32676;52.630;4.896;2023-01-13T00:49:06;48.15;;;7.03;;
46941;SDS011;32676;52.630;4.896;2023-01-13T00:51:33;57.33;;;10.70;;
46941;SDS011;32676;52.630;4.896;2023-01-13T00:54:01;34.90;;;7.22;;
46941;SDS011;32676;52.630;4.896;2023-01-13T00:56:27;67.15;;;10.88;;
46941;SDS011;32676;52.630;4.896;2023-01-13T00:58:54;39.80;;;7.30;;
46941;SDS011;32676;52.630;4.896;2023-01-13T01:01:21;51.35;;;7.15;;
46941;SDS011;32676;52.630;4.896;2023-01-13T01:03:49;83.65;;;9.52;;
46941;SDS011;32676;52.630;4.896;2023-01-13T01:06:18;44.63;;;8.77;;
46941;SDS011;32676;52.630;4.896;2023-01-13T01:08:46;37.63;;;7.28;;
46941;SDS011;32676;52.630;4.896;2023-01-13T01:11:15;55.50;;;8.93;;
46941;SDS011;32676;52.630;4.896;2023-01-13T01:13:42;46.38;;;8.77;;
46941;SDS011;32676;52.630;4.896;2023-01-13T01:16:10;63.03;;;8.10;;
46941;SDS011;32676;52.630;4.896;2023-01-13T01:18:39;45.72;;;7.57;;
46941;SDS011;32676;52.630;4.896;2023-01-13T01:21:07;59.75;;;10.80;;
46941;SDS011;32676;52.630;4.896;2023-01-13T01:23:34;51.92;;;7.28;;
46941;SDS011;32676;52.630;4.896;2023-01-13T01:26:03;60.78;;;9.25;;
46941;SDS011;32676;52.630;4.896;2023-01-13T01:28:32;49.47;;;7.75;;
46941;SDS011;32676;52.630;4.896;2023-01-13T01:31:04;42.80;;;9.13;;
46941;SDS011;32676;52.630;4.896;2023-01-13T01:33:31;37.63;;;6.45;;
46941;SDS011;32676;52.630;4.896;2023-01-13T01:35:59;50.20;;;7.72;;
46941;SDS011;32676;52.630;4.896;2023-01-13T01:38:25;55.67;;;10.10;;
46941;SDS011;32676;52.630;4.896;2023-01-13T01:40:52;49.75;;;9.60;;
46941;SDS011;32676;52.630;4.896;2023-01-13T01:43:19;50.67;;;8.23;;
46941;SDS011;32676;52.630;4.896;2023-01-13T01:46:11;56.25;;;8.90;;
46941;SDS011;32676;52.630;4.896;2023-01-13T01:48:38;48.88;;;8.18;;
46941;SDS011;32676;52.630;4.896;2023-01-13T01:51:08;50.97;;;8.90;;
46941;SDS011;32676;52.630;4.896;2023-01-13T01:53:38;54.40;;;10.23;;
46941;SDS011;32676;52.630;4.896;2023-01-13T01:56:06;51.78;;;8.77;;
46941;SDS011;32676;52.630;4.896;2023-01-13T01:58:34;50.60;;;7.72;;
46941;SDS011;32676;52.630;4.896;2023-01-13T02:01:06;52.45;;;9.00;;
46941;SDS011;32676;52.630;4.896;2023-01-13T02:03:34;43.22;;;8.00;;
46941;SDS011;32676;52.630;4.896;2023-01-13T02:06:05;47.67;;;10.32;;
46941;SDS011;32676;52.630;4.896;2023-01-13T02:08:33;47.58;;;6.78;;
46941;SDS011;32676;52.630;4.896;2023-01-13T02:11:00;51.55;;;7.82;;
46941;SDS011;32676;52.630;4.896;2023-01-13T02:13:26;54.80;;;8.35;;
46941;SDS011;32676;52.630;4.896;2023-01-13T02:15:54;60.78;;;8.57;;
46941;SDS011;32676;52.630;4.896;2023-01-13T02:18:37;37.83;;;6.03;;
46941;SDS011;32676;52.630;4.896;2023-01-13T02:30:38;56.22;;;10.15;;
46941;SDS011;32676;52.630;4.896;2023-01-13T02:33:28;52.63;;;9.60;;
46941;SDS011;32676;52.630;4.896;2023-01-13T02:36:01;49.58;;;10.32;;
46941;SDS011;32676;52.630;4.896;2023-01-13T02:38:37;46.78;;;8.18;;
46941;SDS011;32676;52.630;4.896;2023-01-13T02:41:17;36.88;;;7.57;;
46941;SDS011;32676;52.630;4.896;2023-01-13T02:44:07;52.05;;;10.30;;
46941;SDS011;32676;52.630;4.896;2023-01-13T02:46:43;62.10;;;12.45;;
46941;SDS011;32676;52.630;4.896;2023-01-13T02:49:16;49.75;;;8.07;;
46941;SDS011;32676;52.630;4.896;2023-01-13T02:51:48;53.65;;;6.32;;
46941;SDS011;32676;52.630;4.896;2023-01-13T02:54:18;44.17;;;8.73;;
46941;SDS011;32676;52.630;4.896;2023-01-13T02:56:50;48.08;;;7.00;;
46941;SDS011;32676;52.630;4.896;2023-01-13T02:59:19;45.38;;;7.97;;
46941;SDS011;32676;52.630;4.896;2023-01-13T03:01:51;51.55;;;7.57;;
46941;SDS011;32676;52.630;4.896;2023-01-13T03:07:11;44.70;;;6.35;;
46941;SDS011;32676;52.630;4.896;2023-01-13T03:09:47;62.38;;;10.15;;
46941;SDS011;32676;52.630;4.896;2023-01-13T03:12:21;47.95;;;8.70;;
46941;SDS011;32676;52.630;4.896;2023-01-13T03:14:58;51.40;;;7.78;;
46941;SDS011;32676;52.630;4.896;2023-01-13T03:17:36;41.50;;;7.38;;
46941;SDS011;32676;52.630;4.896;2023-01-13T03:20:09;46.03;;;8.13;;
46941;SDS011;32676;52.630;4.896;2023-01-13T03:22:43;40.88;;;7.07;;
46941;SDS011;32676;52.630;4.896;2023-01-13T03:25:20;32.60;;;6.78;;
46941;SDS011;32676;52.630;4.896;2023-01-13T03:27:52;32.50;;;7.38;;
46941;SDS011;32676;52.630;4.896;2023-01-13T03:30:24;47.00;;;7.90;;
46941;SDS011;32676;52.630;4.896;2023-01-13T03:32:57;36.67;;;8.02;;
46941;SDS011;32676;52.630;4.896;2023-01-13T03:35:28;37.63;;;7.18;;
46941;SDS011;32676;52.630;4.896;2023-01-13T03:37:58;32.30;;;5.05;;
46941;SDS011;32676;52.630;4.896;2023-01-13T03:40:28;38.92;;;6.03;;
46941;SDS011;32676;52.630;4.896;2023-01-13T03:42:58;39.60;;;5.82;;
46941;SDS011;32676;52.630;4.896;2023-01-13T03:46:01;41.63;;;6.40;;
46941;SDS011;32676;52.630;4.896;2023-01-13T03:48:34;33.53;;;5.63;;
46941;SDS011;32676;52.630;4.896;2023-01-13T03:51:06;34.65;;;6.30;;
46941;SDS011;32676;52.630;4.896;2023-01-13T03:53:36;33.25;;;7.03;;
46941;SDS011;32676;52.630;4.896;2023-01-13T03:56:09;48.28;;;8.45;;
46941;SDS011;32676;52.630;4.896;2023-01-13T03:58:41;38.55;;;6.18;;
46941;SDS011;32676;52.630;4.896;2023-01-13T04:01:11;35.88;;;6.78;;
46941;SDS011;32676;52.630;4.896;2023-01-13T04:03:45;36.75;;;6.97;;
46941;SDS011;32676;52.630;4.896;2023-01-13T04:06:20;23.85;;;5.85;;
46941;SDS011;32676;52.630;4.896;2023-01-13T04:08:52;36.60;;;6.03;;
46941;SDS011;32676;52.630;4.896;2023-01-13T04:11:24;36.03;;;6.43;;
46941;SDS011;32676;52.630;4.896;2023-01-13T04:13:58;23.05;;;4.82;;
46941;SDS011;32676;52.630;4.896;2023-01-13T04:16:26;45.53;;;6.07;;
46941;SDS011;32676;52.630;4.896;2023-01-13T04:18:54;46.33;;;8.50;;
46941;SDS011;32676;52.630;4.896;2023-01-13T04:21:20;32.72;;;7.30;;
46941;SDS011;32676;52.630;4.896;2023-01-13T04:23:47;38.40;;;7.93;;
46941;SDS011;32676;52.630;4.896;2023-01-13T04:26:15;46.35;;;7.95;;
46941;SDS011;32676;52.630;4.896;2023-01-13T04:28:41;36.22;;;7.45;;
46941;SDS011;32676;52.630;4.896;2023-01-13T04:31:08;31.92;;;5.85;;
46941;SDS011;32676;52.630;4.896;2023-01-13T04:33:35;37.97;;;8.18;;
46941;SDS011;32676;52.630;4.896;2023-01-13T04:36:03;45.40;;;7.13;;
46941;SDS011;32676;52.630;4.896;2023-01-13T04:38:29;26.58;;;4.50;;
46941;SDS011;32676;52.630;4.896;2023-01-13T04:40:56;37.50;;;6.20;;
46941;SDS011;32676;52.630;4.896;2023-01-13T04:43:22;28.83;;;7.80;;
46941;SDS011;32676;52.630;4.896;2023-01-13T04:45:49;41.38;;;5.25;;
46941;SDS011;32676;52.630;4.896;2023-01-13T04:48:15;33.80;;;5.85;;
46941;SDS011;32676;52.630;4.896;2023-01-13T04:50:42;35.45;;;8.68;;
46941;SDS011;32676;52.630;4.896;2023-01-13T04:53:10;38.08;;;7.32;;
46941;SDS011;32676;52.630;4.896;2023-01-13T04:55:36;28.02;;;5.20;;
46941;SDS011;32676;52.630;4.896;2023-01-13T04:58:03;28.30;;;5.53;;
46941;SDS011;32676;52.630;4.896;2023-01-13T05:00:30;34.75;;;5.47;;
46941;SDS011;32676;52.630;4.896;2023-01-13T05:02:57;49.42;;;7.45;;
46941;SDS011;32676;52.630;4.896;2023-01-13T05:05:24;47.15;;;9.30;;
46941;SDS011;32676;52.630;4.896;2023-01-13T05:07:51;26.08;;;5.55;;
46941;SDS011;32676;52.630;4.896;2023-01-13T05:10:19;35.92;;;4.90;;
46941;SDS011;32676;52.630;4.896;2023-01-13T05:12:46;25.50;;;5.95;;
46941;SDS011;32676;52.630;4.896;2023-01-13T05:15:30;33.40;;;6.80;;
46941;SDS011;32676;52.630;4.896;2023-01-13T05:18:28;24.83;;;3.97;;
46941;SDS011;32676;52.630;4.896;2023-01-13T05:20:56;34.60;;;4.47;;
46941;SDS011;32676;52.630;4.896;2023-01-13T05:23:22;35.42;;;4.65;;
46941;SDS011;32676;52.630;4.896;2023-01-13T05:26:08;32.42;;;6.28;;
46941;SDS011;32676;52.630;4.896;2023-01-13T05:28:34;27.52;;;4.10;;
46941;SDS011;32676;52.630;4.896;2023-01-13T05:31:00;31.00;;;5.72;;
46941;SDS011;32676;52.630;4.896;2023-01-13T05:33:27;25.77;;;5.63;;
46941;SDS011;32676;52.630;4.896;2023-01-13T05:35:54;34.53;;;6.60;;
46941;SDS011;32676;52.630;4.896;2023-01-13T05:38:20;23.80;;;4.80;;
46941;SDS011;32676;52.630;4.896;2023-01-13T05:40:47;33.13;;;5.60;;
46941;SDS011;32676;52.630;4.896;2023-01-13T05:43:41;40.28;;;6.80;;
46941;SDS011;32676;52.630;4.896;2023-01-13T05:46:07;31.35;;;6.38;;
46941;SDS011;32676;52.630;4.896;2023-01-13T05:48:36;36.45;;;4.72;;
46941;SDS011;32676;52.630;4.896;2023-01-13T05:51:05;33.83;;;8.27;;
46941;SDS011;32676;52.630;4.896;2023-01-13T05:53:33;40.33;;;6.05;;
46941;SDS011;32676;52.630;4.896;2023-01-13T05:56:02;36.38;;;5.93;;
46941;SDS011;32676;52.630;4.896;2023-01-13T05:58:29;32.00;;;4.93;;
46941;SDS011;32676;52.630;4.896;2023-01-13T06:00:59;35.05;;;7.30;;
46941;SDS011;32676;52.630;4.896;2023-01-13T06:03:27;39.40;;;6.75;;
46941;SDS011;32676;52.630;4.896;2023-01-13T06:05:53;46.30;;;7.95;;
46941;SDS011;32676;52.630;4.896;2023-01-13T06:08:22;33.22;;;4.63;;
46941;SDS011;32676;52.630;4.896;2023-01-13T06:10:49;44.13;;;6.97;;
46941;SDS011;32676;52.630;4.896;2023-01-13T06:13:15;39.65;;;5.72;;
46941;SDS011;32676;52.630;4.896;2023-01-13T06:15:42;43.80;;;8.18;;
46941;SDS011;32676;52.630;4.896;2023-01-13T06:18:10;35.50;;;6.57;;
46941;SDS011;32676;52.630;4.896;2023-01-13T06:20:36;35.47;;;7.20;;
46941;SDS011;32676;52.630;4.896;2023-01-13T06:23:03;29.30;;;6.07;;
46941;SDS011;32676;52.630;4.896;2023-01-13T06:25:32;19.52;;;5.85;;
46941;SDS011;32676;52.630;4.896;2023-01-13T06:28:03;54.15;;;8.00;;
46941;SDS011;32676;52.630;4.896;2023-01-13T06:30:32;33.13;;;6.70;;
46941;SDS011;32676;52.630;4.896;2023-01-13T06:33:03;29.90;;;5.20;;
46941;SDS011;32676;52.630;4.896;2023-01-13T06:35:35;34.40;;;6.50;;
46941;SDS011;32676;52.630;4.896;2023-01-13T06:38:04;41.83;;;7.07;;
46941;SDS011;32676;52.630;4.896;2023-01-13T06:40:34;35.42;;;5.13;;
46941;SDS011;32676;52.630;4.896;2023-01-13T06:43:01;42.78;;;6.80;;
46941;SDS011;32676;52.630;4.896;2023-01-13T06:45:40;48.95;;;7.45;;
46941;SDS011;32676;52.630;4.896;2023-01-13T06:48:11;42.92;;;9.45;;
46941;SDS011;32676;52.630;4.896;2023-01-13T06:50:40;42.70;;;6.70;;
46941;SDS011;32676;52.630;4.896;2023-01-13T06:53:07;29.83;;;5.32;;
46941;SDS011;32676;52.630;4.896;2023-01-13T06:55:33;38.30;;;7.68;;
46941;SDS011;32676;52.630;4.896;2023-01-13T06:58:00;31.65;;;5.75;;
46941;SDS011;32676;52.630;4.896;2023-01-13T07:00:26;45.45;;;9.38;;
46941;SDS011;32676;52.630;4.896;2023-01-13T07:02:53;38.63;;;6.10;;
46941;SDS011;32676;52.630;4.896;2023-01-13T07:05:29;34.03;;;6.05;;
46941;SDS011;32676;52.630;4.896;2023-01-13T07:07:57;43.53;;;6.30;;
46941;SDS011;32676;52.630;4.896;2023-01-13T07:10:24;36.25;;;5.57;;
46941;SDS011;32676;52.630;4.896;2023-01-13T07:12:50;33.78;;;6.95;;
46941;SDS011;32676;52.630;4.896;2023-01-13T07:15:34;47.72;;;8.02;;
46941;SDS011;32676;52.630;4.896;2023-01-13T07:18:01;52.60;;;7.03;;
46941;SDS011;32676;52.630;4.896;2023-01-13T07:20:28;26.67;;;7.50;;
46941;SDS011;32676;52.630;4.896;2023-01-13T07:22:54;33.20;;;6.13;;
46941;SDS011;32676;52.630;4.896;2023-01-13T07:25:23;46.45;;;7.65;;
46941;SDS011;32676;52.630;4.896;2023-01-13T07:27:49;36.42;;;6.55;;
46941;SDS011;32676;52.630;4.896;2023-01-13T07:30:16;37.80;;;4.25;;
46941;SDS011;32676;52.630;4.896;2023-01-13T07:32:43;36.00;;;6.10;;
46941;SDS011;32676;52.630;4.896;2023-01-13T07:35:09;27.02;;;6.63;;
46941;SDS011;32676;52.630;4.896;2023-01-13T07:37:36;20.05;;;4.50;;
46941;SDS011;32676;52.630;4.896;2023-01-13T07:40:04;37.92;;;8.52;;
46941;SDS011;32676;52.630;4.896;2023-01-13T07:42:32;47.63;;;7.88;;
46941;SDS011;32676;52.630;4.896;2023-01-13T07:47:43;33.10;;;5.20;;
46941;SDS011;32676;52.630;4.896;2023-01-13T07:50:09;27.30;;;5.63;;
46941;SDS011;32676;52.630;4.896;2023-01-13T07:52:36;33.67;;;5.32;;
46941;SDS011;32676;52.630;4.896;2023-01-13T07:55:03;30.15;;;5.93;;
46941;SDS011;32676;52.630;4.896;2023-01-13T07:57:29;38.45;;;6.72;;
46941;SDS011;32676;52.630;4.896;2023-01-13T07:59:57;38.72;;;5.82;;
46941;SDS011;32676;52.630;4.896;2023-01-13T08:02:24;37.78;;;6.13;;
46941;SDS011;32676;52.630;4.896;2023-01-13T08:04:50;39.13;;;7.38;;
46941;SDS011;32676;52.630;4.896;2023-01-13T08:07:16;33.38;;;8.75;;
46941;SDS011;32676;52.630;4.896;2023-01-13T08:09:43;38.95;;;6.22;;
46941;SDS011;32676;52.630;4.896;2023-01-13T08:12:09;38.80;;;7.47;;
46941;SDS011;32676;52.630;4.896;2023-01-13T08:14:53;43.45;;;7.03;;
46941;SDS011;32676;52.630;4.896;2023-01-13T08:17:21;38.13;;;5.18;;
46941;SDS011;32676;52.630;4.896;2023-01-13T08:19:48;32.10;;;6.75;;
46941;SDS011;32676;52.630;4.896;2023-01-13T08:22:15;35.80;;;6.63;;
46941;SDS011;32676;52.630;4.896;2023-01-13T08:24:41;30.45;;;6.05;;
46941;SDS011;32676;52.630;4.896;2023-01-13T08:27:08;35.22;;;6.78;;
46941;SDS011;32676;52.630;4.896;2023-01-13T08:29:34;32.83;;;6.13;;
46941;SDS011;32676;52.630;4.896;2023-01-13T08:32:00;33.83;;;8.32;;
46941;SDS011;32676;52.630;4.896;2023-01-13T08:34:28;31.70;;;5.90;;
46941;SDS011;32676;52.630;4.896;2023-01-13T08:36:55;32.13;;;5.03;;
46941;SDS011;32676;52.630;4.896;2023-01-13T08:39:22;34.90;;;7.57;;
46941;SDS011;32676;52.630;4.896;2023-01-13T08:41:49;35.17;;;6.22;;
46941;SDS011;32676;52.630;4.896;2023-01-13T08:44:23;30.90;;;4.85;;
46941;SDS011;32676;52.630;4.896;2023-01-13T08:46:50;38.42;;;9.50;;
46941;SDS011;32676;52.630;4.896;2023-01-13T08:49:17;22.15;;;2.67;;
46941;SDS011;32676;52.630;4.896;2023-01-13T08:51:45;34.70;;;5.22;;
46941;SDS011;32676;52.630;4.896;2023-01-13T08:54:11;26.10;;;5.15;;
46941;SDS011;32676;52.630;4.896;2023-01-13T08:56:39;28.77;;;4.25;;
46941;SDS011;32676;52.630;4.896;2023-01-13T08:59:07;32.80;;;4.30;;
46941;SDS011;32676;52.630;4.896;2023-01-13T09:01:36;27.25;;;7.00;;
46941;SDS011;32676;52.630;4.896;2023-01-13T09:04:03;39.00;;;6.15;;
46941;SDS011;32676;52.630;4.896;2023-01-13T09:06:30;34.95;;;5.13;;
46941;SDS011;32676;52.630;4.896;2023-01-13T09:08:58;25.63;;;5.32;;
46941;SDS011;32676;52.630;4.896;2023-01-13T09:11:28;47.00;;;7.63;;
46941;SDS011;32676;52.630;4.896;2023-01-13T09:14:17;28.55;;;5.03;;
46941;SDS011;32676;52.630;4.896;2023-01-13T09:16:45;28.00;;;6.03;;
46941;SDS011;32676;52.630;4.896;2023-01-13T09:19:11;36.42;;;6.35;;
46941;SDS011;32676;52.630;4.896;2023-01-13T09:21:39;32.28;;;6.07;;
46941;SDS011;32676;52.630;4.896;2023-01-13T09:24:07;25.42;;;5.47;;
46941;SDS011;32676;52.630;4.896;2023-01-13T09:26:34;25.88;;;4.57;;
46941;SDS011;32676;52.630;4.896;2023-01-13T09:29:02;22.65;;;4.22;;
46941;SDS011;32676;52.630;4.896;2023-01-13T09:31:29;20.85;;;3.45;;
46941;SDS011;32676;52.630;4.896;2023-01-13T09:33:58;34.08;;;4.63;;
46941;SDS011;32676;52.630;4.896;2023-01-13T09:36:42;17.67;;;4.10;;
46941;SDS011;32676;52.630;4.896;2023-01-13T09:39:10;30.27;;;5.57;;
46941;SDS011;32676;52.630;4.896;2023-01-13T09:41:40;34.83;;;5.43;;
46941;SDS011;32676;52.630;4.896;2023-01-13T09:44:27;40.53;;;5.30;;
46941;SDS011;32676;52.630;4.896;2023-01-13T09:47:06;29.25;;;5.03;;
46941;SDS011;32676;52.630;4.896;2023-01-13T09:49:40;24.90;;;6.22;;
46941;SDS011;32676;52.630;4.896;2023-01-13T09:52:09;35.10;;;5.18;;
46941;SDS011;32676;52.630;4.896;2023-01-13T09:54:41;31.42;;;4.07;;
46941;SDS011;32676;52.630;4.896;2023-01-13T09:57:10;35.78;;;5.45;;
46941;SDS011;32676;52.630;4.896;2023-01-13T09:59:38;30.45;;;4.13;;
46941;SDS011;32676;52.630;4.896;2023-01-13T10:02:18;25.45;;;4.40;;
46941;SDS011;32676;52.630;4.896;2023-01-13T10:05:03;27.88;;;3.78;;
46941;SDS011;32676;52.630;4.896;2023-01-13T10:07:41;27.40;;;5.85;;
46941;SDS011;32676;52.630;4.896;2023-01-13T10:10:17;22.60;;;4.03;;
46941;SDS011;32676;52.630;4.896;2023-01-13T10:12:47;26.55;;;4.13;;
46941;SDS011;32676;52.630;4.896;2023-01-13T10:15:32;17.50;;;3.42;;
46941;SDS011;32676;52.630;4.896;2023-01-13T10:18:01;20.70;;;3.03;;
46941;SDS011;32676;52.630;4.896;2023-01-13T10:20:36;22.45;;;3.55;;
46941;SDS011;32676;52.630;4.896;2023-01-13T10:23:20;22.30;;;5.68;;
46941;SDS011;32676;52.630;4.896;2023-01-13T10:26:12;31.20;;;4.53;;
46941;SDS011;32676;52.630;4.896;2023-01-13T10:28:52;22.80;;;4.60;;
46941;SDS011;32676;52.630;4.896;2023-01-13T10:31:19;22.98;;;4.07;;
46941;SDS011;32676;52.630;4.896;2023-01-13T10:33:46;19.80;;;3.55;;
46941;SDS011;32676;52.630;4.896;2023-01-13T10:36:13;19.00;;;3.92;;
46941;SDS011;32676;52.630;4.896;2023-01-13T10:38:41;22.90;;;4.00;;
46941;SDS011;32676;52.630;4.896;2023-01-13T10:41:17;29.73;;;4.63;;
46941;SDS011;32676;52.630;4.896;2023-01-13T10:43:56;30.33;;;4.00;;
46941;SDS011;32676;52.630;4.896;2023-01-13T10:46:24;22.85;;;4.35;;
46941;SDS011;32676;52.630;4.896;2023-01-13T10:48:52;32.55;;;6.25;;
46941;SDS011;32676;52.630;4.896;2023-01-13T10:51:21;22.90;;;3.47;;
46941;SDS011;32676;52.630;4.896;2023-01-13T10:53:54;15.85;;;2.85;;
46941;SDS011;32676;52.630;4.896;2023-01-13T10:56:28;24.23;;;4.93;;
46941;SDS011;32676;52.630;4.896;2023-01-13T10:59:08;29.92;;;4.28;;
46941;SDS011;32676;52.630;4.896;2023-01-13T11:01:38;18.70;;;4.82;;
46941;SDS011;32676;52.630;4.896;2023-01-13T11:04:14;17.65;;;3.72;;
46941;SDS011;32676;52.630;4.896;2023-01-13T11:06:52;24.20;;;2.95;;
46941;SDS011;32676;52.630;4.896;2023-01-13T11:09:19;19.50;;;3.97;;
46941;SDS011;32676;52.630;4.896;2023-01-13T11:11:50;24.80;;;3.95;;
46941;SDS011;32676;52.630;4.896;2023-01-13T11:14:21;16.63;;;2.88;;
46941;SDS011;32676;52.630;4.896;2023-01-13T11:17:01;19.42;;;2.63;;
46941;SDS011;32676;52.630;4.896;2023-01-13T11:19:33;27.67;;;4.05;;
46941;SDS011;32676;52.630;4.896;2023-01-13T11:22:06;27.95;;;3.17;;
46941;SDS011;32676;52.630;4.896;2023-01-13T11:24:37;15.65;;;3.40;;
46941;SDS011;32676;52.630;4.896;2023-01-13T11:27:11;26.45;;;5.20;;
46941;SDS011;32676;52.630;4.896;2023-01-13T11:29:44;20.27;;;2.80;;
46941;SDS011;32676;52.630;4.896;2023-01-13T11:32:23;18.60;;;4.07;;
46941;SDS011;32676;52.630;4.896;2023-01-13T11:34:52;25.33;;;4.72;;
46941;SDS011;32676;52.630;4.896;2023-01-13T11:37:22;20.88;;;3.30;;
46941;SDS011;32676;52.630;4.896;2023-01-13T11:39:53;21.17;;;2.70;;
46941;SDS011;32676;52.630;4.896;2023-01-13T11:42:30;21.98;;;3.38;;
46941;SDS011;32676;52.630;4.896;2023-01-13T11:45:04;14.47;;;3.13;;
46941;SDS011;32676;52.630;4.896;2023-01-13T11:47:40;21.65;;;3.70;;
46941;SDS011;32676;52.630;4.896;2023-01-13T11:50:12;16.65;;;3.17;;
46941;SDS011;32676;52.630;4.896;2023-01-13T11:52:52;19.55;;;3.40;;
46941;SDS011;32676;52.630;4.896;2023-01-13T11:55:30;18.13;;;2.75;;
46941;SDS011;32676;52.630;4.896;2023-01-13T12:01:08;28.35;;;5.32;;
46941;SDS011;32676;52.630;4.896;2023-01-13T12:03:45;12.48;;;2.35;;
46941;SDS011;32676;52.630;4.896;2023-01-13T12:06:27;17.63;;;2.63;;
46941;SDS011;32676;52.630;4.896;2023-01-13T12:09:02;18.90;;;2.22;;
46941;SDS011;32676;52.630;4.896;2023-01-13T12:11:47;25.58;;;2.20;;
46941;SDS011;32676;52.630;4.896;2023-01-13T12:14:44;21.15;;;2.40;;
46941;SDS011;32676;52.630;4.896;2023-01-13T12:17:21;14.43;;;2.83;;
46941;SDS011;32676;52.630;4.896;2023-01-13T12:19:54;15.40;;;2.72;;
46941;SDS011;32676;52.630;4.896;2023-01-13T12:22:22;24.35;;;3.60;;
46941;SDS011;32676;52.630;4.896;2023-01-13T12:24:54;17.45;;;2.30;;
46941;SDS011;32676;52.630;4.896;2023-01-13T12:27:30;19.45;;;2.65;;
46941;SDS011;32676;52.630;4.896;2023-01-13T12:30:11;24.08;;;3.05;;
46941;SDS011;32676;52.630;4.896;2023-01-13T12:32:46;21.00;;;3.55;;
46941;SDS011;32676;52.630;4.896;2023-01-13T12:35:19;15.82;;;2.67;;
46941;SDS011;32676;52.630;4.896;2023-01-13T12:37:58;17.17;;;2.70;;
46941;SDS011;32676;52.630;4.896;2023-01-13T12:40:41;20.83;;;4.07;;
46941;SDS011;32676;52.630;4.896;2023-01-13T12:43:16;14.07;;;2.60;;
46941;SDS011;32676;52.630;4.896;2023-01-13T12:49:20;47.35;;;4.80;;
46941;SDS011;32676;52.630;4.896;2023-01-13T12:52:10;19.27;;;2.78;;
46941;SDS011;32676;52.630;4.896;2023-01-13T12:57:43;14.25;;;3.60;;
46941;SDS011;32676;52.630;4.896;2023-01-13T13:00:21;29.83;;;4.15;;
46941;SDS011;32676;52.630;4.896;2023-01-13T13:06:06;16.35;;;2.20;;
46941;SDS011;32676;52.630;4.896;2023-01-13T13:08:45;31.25;;;3.97;;
46941;SDS011;32676;52.630;4.896;2023-01-13T13:11:22;29.38;;;6.07;;
46941;SDS011;32676;52.630;4.896;2023-01-13T13:20:50;27.70;;;3.25;;
46941;SDS011;32676;52.630;4.896;2023-01-13T13:23:37;23.25;;;3.38;;
46941;SDS011;32676;52.630;4.896;2023-01-13T13:26:17;17.80;;;4.57;;
46941;SDS011;32676;52.630;4.896;2023-01-13T13:28:53;27.73;;;4.03;;
46941;SDS011;32676;52.630;4.896;2023-01-13T13:31:31;22.58;;;2.65;;
46941;SDS011;32676;52.630;4.896;2023-01-13T13:34:23;17.10;;;3.95;;
46941;SDS011;32676;52.630;4.896;2023-01-13T13:39:55;16.42;;;2.25;;
46941;SDS011;32676;52.630;4.896;2023-01-13T13:42:40;29.05;;;5.55;;
46941;SDS011;32676;52.630;4.896;2023-01-13T13:45:27;26.85;;;4.30;;
46941;SDS011;32676;52.630;4.896;2023-01-13T13:48:26;19.73;;;2.88;;
46941;SDS011;32676;52.630;4.896;2023-01-13T13:50:55;18.85;;;2.70;;
46941;SDS011;32676;52.630;4.896;2023-01-13T13:53:26;17.77;;;3.97;;
46941;SDS011;32676;52.630;4.896;2023-01-13T13:55:58;14.85;;;2.55;;
46941;SDS011;32676;52.630;4.896;2023-01-13T13:58:27;17.25;;;2.30;;
46941;SDS011;32676;52.630;4.896;2023-01-13T14:00:55;21.45;;;4.65;;
46941;SDS011;32676;52.630;4.896;2023-01-13T14:03:24;18.92;;;2.58;;
46941;SDS011;32676;52.630;4.896;2023-01-13T14:05:54;16.33;;;2.63;;
46941;SDS011;32676;52.630;4.896;2023-01-13T14:08:23;15.02;;;2.20;;
46941;SDS011;32676;52.630;4.896;2023-01-13T14:10:50;13.95;;;2.17;;
46941;SDS011;32676;52.630;4.896;2023-01-13T14:13:20;16.38;;;2.05;;
46941;SDS011;32676;52.630;4.896;2023-01-13T14:15:48;18.83;;;3.00;;
46941;SDS011;32676;52.630;4.896;2023-01-13T14:18:20;20.20;;;3.30;;
46941;SDS011;32676;52.630;4.896;2023-01-13T14:20:54;11.80;;;2.50;;
46941;SDS011;32676;52.630;4.896;2023-01-13T14:23:24;13.60;;;2.88;;
46941;SDS011;32676;52.630;4.896;2023-01-13T14:25:52;15.45;;;2.53;;
46941;SDS011;32676;52.630;4.896;2023-01-13T14:28:25;12.77;;;2.13;;
46941;SDS011;32676;52.630;4.896;2023-01-13T14:30:53;20.42;;;3.20;;
46941;SDS011;32676;52.630;4.896;2023-01-13T14:33:22;20.13;;;2.13;;
46941;SDS011;32676;52.630;4.896;2023-01-13T14:36:09;20.65;;;2.50;;
46941;SDS011;32676;52.630;4.896;2023-01-13T14:38:39;15.23;;;2.53;;
46941;SDS011;32676;52.630;4.896;2023-01-13T14:41:10;18.27;;;3.90;;
46941;SDS011;32676;52.630;4.896;2023-01-13T14:43:48;13.35;;;1.85;;
46941;SDS011;32676;52.630;4.896;2023-01-13T14:46:16;14.98;;;2.72;;
46941;SDS011;32676;52.630;4.896;2023-01-13T14:48:45;14.10;;;2.33;;
46941;SDS011;32676;52.630;4.896;2023-01-13T14:51:12;18.80;;;2.05;;
46941;SDS011;32676;52.630;4.896;2023-01-13T14:53:47;20.63;;;2.13;;
46941;SDS011;32676;52.630;4.896;2023-01-13T15:07:57;21.85;;;3.00;;
46941;SDS011;32676;52.630;4.896;2023-01-13T15:10:27;24.15;;;2.78;;
46941;SDS011;32676;52.630;4.896;2023-01-13T15:12:55;12.73;;;2.65;;
46941;SDS011;32676;52.630;4.896;2023-01-13T15:15:25;18.02;;;2.13;;
46941;SDS011;32676;52.630;4.896;2023-01-13T15:17:54;17.33;;;2.22;;
46941;SDS011;32676;52.630;4.896;2023-01-13T15:20:22;18.00;;;3.00;;
46941;SDS011;32676;52.630;4.896;2023-01-13T15:22:50;28.50;;;4.50;;
46941;SDS011;32676;52.630;4.896;2023-01-13T15:25:17;30.70;;;5.07;;
46941;SDS011;32676;52.630;4.896;2023-01-13T15:27:44;10.80;;;2.97;;
46941;SDS011;32676;52.630;4.896;2023-01-13T15:30:14;15.95;;;2.65;;
46941;SDS011;32676;52.630;4.896;2023-01-13T15:32:43;17.67;;;2.92;;
46941;SDS011;32676;52.630;4.896;2023-01-13T15:35:11;18.20;;;3.25;;
46941;SDS011;32676;52.630;4.896;2023-01-13T15:37:38;18.10;;;3.15;;
46941;SDS011;32676;52.630;4.896;2023-01-13T15:40:08;21.60;;;4.07;;
46941;SDS011;32676;52.630;4.896;2023-01-13T15:42:38;15.98;;;4.40;;
46941;SDS011;32676;52.630;4.896;2023-01-13T15:45:22;20.45;;;3.58;;
46941;SDS011;32676;52.630;4.896;2023-01-13T15:48:08;15.05;;;2.83;;